createdAt,value
2023-01-17T00:00:23.759Z,95880.03
2023-01-17T00:01:29.115Z,95874.88
2023-01-17T00:02:32.081Z,95884.19
2023-01-17T00:03:55.388Z,95875.91
2023-01-17T00:05:16.853Z,95893.25
2023-01-17T00:06:37.910Z,95890.50
2023-01-17T00:07:59.635Z,95887.16
2023-01-17T00:09:20.689Z,95884.38
2023-01-17T00:10:24.840Z,95882.63
2023-01-17T00:11:27.546Z,95885.19
2023-01-17T00:12:31.576Z,95885.63
2023-01-17T00:13:34.084Z,95880.13
2023-01-17T00:14:36.723Z,95871.47
2023-01-17T00:15:40.218Z,95873.44
2023-01-17T00:16:42.760Z,95873.75
2023-01-17T00:17:45.873Z,95865.41
2023-01-17T00:19:08.304Z,95874.88
2023-01-17T00:20:31.943Z,95869.87
2023-01-17T00:21:54.781Z,95869.22
2023-01-17T00:23:16.258Z,95880.03
2023-01-17T00:24:37.529Z,95876.81
2023-01-17T00:25:59.007Z,95880.59
2023-01-17T00:27:13.499Z,95876.19
2023-01-17T00:28:16.299Z,95877.22
2023-01-17T00:29:18.753Z,95876.03
2023-01-17T00:30:21.316Z,95874.12
2023-01-17T00:31:23.870Z,95868.44
2023-01-17T00:32:26.561Z,95871.34
2023-01-17T00:33:28.975Z,95877.16
2023-01-17T00:34:31.500Z,95873.16
2023-01-17T00:35:34.608Z,95872.41
2023-01-17T00:36:37.097Z,95870.72
2023-01-17T00:37:39.616Z,95868.28
2023-01-17T00:38:42.269Z,95859.91
2023-01-17T00:39:44.738Z,95862.81
2023-01-17T00:40:47.746Z,95861.31
2023-01-17T00:41:50.145Z,95861.00
2023-01-17T00:42:52.573Z,95872.72
2023-01-17T00:44:13.618Z,95873.34
2023-01-17T00:45:34.818Z,95865.56
2023-01-17T00:46:56.172Z,95877.75
2023-01-17T00:48:17.206Z,95871.69
2023-01-17T00:49:38.736Z,95880.34
2023-01-17T00:51:00.112Z,95876.06
2023-01-17T00:52:21.339Z,95872.00
2023-01-17T00:53:42.659Z,95873.16
2023-01-17T00:55:03.908Z,95863.88
2023-01-17T00:56:25.131Z,95861.75
2023-01-17T00:57:47.696Z,95858.06
2023-01-17T00:59:09.111Z,95862.00
2023-01-17T01:00:30.448Z,95863.88
2023-01-17T01:01:52.947Z,95857.03
2023-01-17T01:03:13.999Z,95862.63
2023-01-17T01:04:34.990Z,95857.88
2023-01-17T01:05:56.926Z,95857.88
2023-01-17T01:07:18.466Z,95862.91
2023-01-17T01:08:44.844Z,95866.41
2023-01-17T01:10:05.961Z,95861.84
2023-01-17T01:11:28.700Z,95854.81
2023-01-17T01:12:49.868Z,95860.19
2023-01-17T01:14:11.128Z,95844.22
2023-01-17T01:15:32.779Z,95847.06
2023-01-17T01:16:53.943Z,95842.03
2023-01-17T01:18:15.196Z,95850.72
2023-01-17T01:19:36.352Z,95846.50
2023-01-17T01:20:57.658Z,95868.25
2023-01-17T01:22:18.745Z,95874.81
2023-01-17T01:23:39.726Z,95868.72
2023-01-17T01:25:01.063Z,95890.66
2023-01-17T01:26:22.835Z,95880.16
2023-01-17T01:27:43.874Z,95891.63
2023-01-17T01:29:05.497Z,95887.66
2023-01-17T01:30:26.759Z,95885.75
2023-01-17T01:31:47.954Z,95892.13
2023-01-17T01:33:09.147Z,95882.91
2023-01-17T01:34:11.550Z,95884.06
2023-01-17T01:35:14.131Z,95891.84
2023-01-17T01:36:16.716Z,95886.88
2023-01-17T01:37:19.241Z,95888.50
2023-01-17T01:38:24.181Z,95889.28
2023-01-17T01:39:26.855Z,95885.19
2023-01-17T01:40:29.490Z,95900.87
2023-01-17T01:41:32.040Z,95898.81
2023-01-17T01:42:34.613Z,95897.59
2023-01-17T01:43:45.192Z,95898.81
2023-01-17T01:44:49.370Z,95907.37
2023-01-17T01:45:55.498Z,95893.56
2023-01-17T01:46:58.065Z,95896.44
2023-01-17T01:48:02.976Z,95892.03
2023-01-17T01:49:08.790Z,95900.13
2023-01-17T01:50:12.943Z,95902.88
2023-01-17T01:51:20.166Z,95885.78
2023-01-17T01:52:24.242Z,95886.72
2023-01-17T01:53:27.506Z,95883.69
2023-01-17T01:54:34.549Z,95885.84
2023-01-17T01:55:40.668Z,95882.31
2023-01-17T01:56:43.849Z,95868.47
2023-01-17T01:57:47.627Z,95868.78
2023-01-17T01:58:51.643Z,95864.34
2023-01-17T01:59:56.896Z,95869.37
2023-01-17T02:00:59.621Z,95855.37
2023-01-17T02:02:02.400Z,95855.66
2023-01-17T02:03:07.441Z,95845.16
2023-01-17T02:04:10.282Z,95841.09
2023-01-17T02:05:14.503Z,95836.81
2023-01-17T02:06:17.285Z,95838.50
2023-01-17T02:07:25.735Z,95838.34
2023-01-17T02:08:29.030Z,95838.50
2023-01-17T02:09:31.772Z,95832.72
2023-01-17T02:10:36.602Z,95838.19
2023-01-17T02:11:39.239Z,95840.16
2023-01-17T02:12:42.214Z,95848.25
2023-01-17T02:13:44.855Z,95837.44
2023-01-17T02:14:47.341Z,95835.91
2023-01-17T02:16:01.642Z,95832.25
2023-01-17T02:17:10.497Z,95838.19
2023-01-17T02:18:13.056Z,95838.22
2023-01-17T02:19:24.469Z,95854.81
2023-01-17T02:20:49.616Z,95833.16
2023-01-17T02:22:10.503Z,95840.34
2023-01-17T02:23:22.170Z,95839.56
2023-01-17T02:24:39.903Z,95832.28
2023-01-17T02:25:43.585Z,95833.94
2023-01-17T02:26:46.256Z,95834.72
2023-01-17T02:27:48.777Z,95828.16
2023-01-17T02:29:02.581Z,95836.34
2023-01-17T02:30:17.255Z,95839.56
2023-01-17T02:31:34.406Z,95841.22
2023-01-17T02:32:36.915Z,95831.97
2023-01-17T02:33:43.544Z,95833.31
2023-01-17T02:34:58.494Z,95834.97
2023-01-17T02:36:19.455Z,95837.88
2023-01-17T02:37:22.018Z,95835.75
2023-01-17T02:38:36.814Z,95834.06
2023-01-17T02:40:00.313Z,95829.19
2023-01-17T02:41:08.065Z,95829.16
2023-01-17T02:42:14.651Z,95822.47
2023-01-17T02:43:18.647Z,95823.84
2023-01-17T02:44:21.652Z,95844.56
2023-01-17T02:45:24.220Z,95829.19
2023-01-17T02:46:27.059Z,95836.03
2023-01-17T02:47:31.128Z,95828.28
2023-01-17T02:48:36.209Z,95830.13
2023-01-17T02:49:38.735Z,95825.97
2023-01-17T02:50:59.696Z,95818.22
2023-01-17T02:52:02.337Z,95817.44
2023-01-17T02:53:04.988Z,95824.59
2023-01-17T02:54:16.694Z,95806.81
2023-01-17T02:55:19.308Z,95807.88
2023-01-17T02:56:27.567Z,95797.06
2023-01-17T02:57:50.156Z,95813.50
2023-01-17T02:59:05.026Z,95800.13
2023-01-17T03:00:17.511Z,95791.28
2023-01-17T03:01:20.145Z,95787.16
2023-01-17T03:02:22.897Z,95793.13
2023-01-17T03:03:25.566Z,95792.66
2023-01-17T03:04:37.033Z,95790.69
2023-01-17T03:05:39.465Z,95783.06
2023-01-17T03:06:47.030Z,95780.81
2023-01-17T03:07:51.231Z,95780.47
2023-01-17T03:08:54.717Z,95775.00
2023-01-17T03:10:02.399Z,95775.44
2023-01-17T03:11:04.975Z,95777.28
2023-01-17T03:12:09.578Z,95761.00
2023-01-17T03:13:12.136Z,95768.16
2023-01-17T03:14:14.603Z,95772.72
2023-01-17T03:15:17.874Z,95764.81
2023-01-17T03:16:21.423Z,95763.87
2023-01-17T03:17:25.389Z,95754.13
2023-01-17T03:18:28.045Z,95762.03
2023-01-17T03:19:31.560Z,95755.06
2023-01-17T03:20:34.176Z,95761.75
2023-01-17T03:21:36.818Z,95753.84
2023-01-17T03:22:39.431Z,95755.81
2023-01-17T03:23:42.033Z,95756.56
2023-01-17T03:24:44.704Z,95739.34
2023-01-17T03:25:47.182Z,95760.06
2023-01-17T03:26:49.892Z,95760.69
2023-01-17T03:27:52.515Z,95762.50
2023-01-17T03:28:55.387Z,95765.25
2023-01-17T03:29:58.163Z,95755.06
2023-01-17T03:31:00.676Z,95742.25
2023-01-17T03:32:03.168Z,95740.44
2023-01-17T03:33:05.792Z,95742.13
2023-01-17T03:34:09.872Z,95750.31
2023-01-17T03:35:12.396Z,95753.09
2023-01-17T03:36:15.116Z,95742.56
2023-01-17T03:37:17.734Z,95749.56
2023-01-17T03:38:20.983Z,95742.72
2023-01-17T03:39:23.558Z,95733.00
2023-01-17T03:40:26.048Z,95738.78
2023-01-17T03:41:28.565Z,95735.13
2023-01-17T03:42:31.125Z,95739.38
2023-01-17T03:43:33.806Z,95722.63
2023-01-17T03:44:36.451Z,95738.31
2023-01-17T03:45:39.053Z,95725.37
2023-01-17T03:46:41.648Z,95727.63
2023-01-17T03:47:44.278Z,95723.53
2023-01-17T03:48:46.857Z,95732.53
2023-01-17T03:49:49.629Z,95722.63
2023-01-17T03:50:52.173Z,95721.25
2023-01-17T03:51:54.777Z,95724.28
2023-01-17T03:52:57.510Z,95717.44
2023-01-17T03:54:00.096Z,95724.16
2023-01-17T03:55:02.929Z,95721.69
2023-01-17T03:56:05.616Z,95723.66
2023-01-17T03:57:08.842Z,95722.31
2023-01-17T03:58:11.274Z,95721.09
2023-01-17T03:59:13.809Z,95728.38
2023-01-17T04:00:17.278Z,95728.09
2023-01-17T04:01:20.118Z,95721.09
2023-01-17T04:02:24.484Z,95716.22
2023-01-17T04:03:27.235Z,95724.44
2023-01-17T04:04:29.854Z,95719.41
2023-01-17T04:05:32.352Z,95715.00
2023-01-17T04:06:35.359Z,95717.72
2023-01-17T04:07:37.880Z,95713.31
2023-01-17T04:08:40.736Z,95713.75
2023-01-17T04:09:43.281Z,95710.72
2023-01-17T04:10:45.991Z,95717.87
2023-01-17T04:11:51.154Z,95716.34
2023-01-17T04:12:54.126Z,95721.69
2023-01-17T04:13:56.706Z,95723.19
2023-01-17T04:14:59.252Z,95721.41
2023-01-17T04:16:01.758Z,95713.31
2023-01-17T04:17:04.681Z,95713.47
2023-01-17T04:18:07.338Z,95711.78
2023-01-17T04:19:13.811Z,95715.91
2023-01-17T04:20:18.865Z,95722.12
2023-01-17T04:21:21.597Z,95724.41
2023-01-17T04:22:24.475Z,95718.00
2023-01-17T04:23:26.988Z,95725.78
2023-01-17T04:24:29.558Z,95723.38
2023-01-17T04:25:32.170Z,95717.09
2023-01-17T04:26:34.836Z,95731.25
2023-01-17T04:27:37.306Z,95721.19
2023-01-17T04:28:40.033Z,95731.75
2023-01-17T04:29:43.059Z,95735.84
2023-01-17T04:30:46.851Z,95733.72
2023-01-17T04:31:49.528Z,95731.28
2023-01-17T04:32:52.163Z,95734.16
2023-01-17T04:33:54.660Z,95741.31
2023-01-17T04:34:57.345Z,95733.72
2023-01-17T04:36:00.299Z,95736.31
2023-01-17T04:37:02.767Z,95728.69
2023-01-17T04:38:05.355Z,95729.47
2023-01-17T04:39:08.475Z,95732.37
2023-01-17T04:40:11.871Z,95724.00
2023-01-17T04:41:14.457Z,95726.56
2023-01-17T04:42:18.812Z,95719.69
2023-01-17T04:43:21.358Z,95727.47
2023-01-17T04:44:23.984Z,95722.78
2023-01-17T04:45:26.542Z,95724.91
2023-01-17T04:46:29.241Z,95732.97
2023-01-17T04:47:31.755Z,95729.47
2023-01-17T04:48:34.320Z,95729.00
2023-01-17T04:49:37.519Z,95724.28
2023-01-17T04:50:40.339Z,95728.56
2023-01-17T04:51:43.281Z,95724.59
2023-01-17T04:52:45.895Z,95727.81
2023-01-17T04:53:48.654Z,95722.91
2023-01-17T04:54:51.354Z,95720.19
2023-01-17T04:55:54.128Z,95726.25
2023-01-17T04:56:56.664Z,95733.13
2023-01-17T04:57:59.275Z,95740.44
2023-01-17T04:59:02.142Z,95727.19
2023-01-17T05:00:05.180Z,95738.16
2023-01-17T05:01:08.540Z,95723.81
2023-01-17T05:02:11.599Z,95735.09
2023-01-17T05:03:14.138Z,95736.34
2023-01-17T05:04:16.852Z,95732.66
2023-01-17T05:05:19.307Z,95730.06
2023-01-17T05:06:22.179Z,95742.88
2023-01-17T05:07:25.256Z,95738.59
2023-01-17T05:08:27.961Z,95740.13
2023-01-17T05:09:30.906Z,95729.00
2023-01-17T05:10:33.420Z,95743.31
2023-01-17T05:11:36.028Z,95734.03
2023-01-17T05:12:38.601Z,95731.59
2023-01-17T05:13:41.223Z,95734.03
2023-01-17T05:14:43.808Z,95729.94
2023-01-17T05:15:46.993Z,95738.59
2023-01-17T05:16:49.510Z,95732.19
2023-01-17T05:17:52.715Z,95735.41
2023-01-17T05:18:55.221Z,95739.34
2023-01-17T05:19:58.136Z,95733.75
2023-01-17T05:21:01.410Z,95731.44
2023-01-17T05:22:15.525Z,95733.13
2023-01-17T05:23:18.055Z,95741.03
2023-01-17T05:24:20.619Z,95741.66
2023-01-17T05:25:24.436Z,95738.00
2023-01-17T05:26:26.952Z,95746.22
2023-01-17T05:27:29.903Z,95738.59
2023-01-17T05:28:32.473Z,95736.94
2023-01-17T05:29:35.043Z,95742.25
2023-01-17T05:30:37.526Z,95741.50
2023-01-17T05:31:40.260Z,95739.34
2023-01-17T05:32:44.802Z,95739.06
2023-01-17T05:33:47.483Z,95740.16
2023-01-17T05:34:51.330Z,95734.19
2023-01-17T05:35:53.897Z,95735.09
2023-01-17T05:36:56.405Z,95737.38
2023-01-17T05:37:58.985Z,95735.25
2023-01-17T05:39:01.463Z,95742.41
2023-01-17T05:40:06.339Z,95757.03
2023-01-17T05:41:09.078Z,95744.72
2023-01-17T05:42:11.711Z,95751.09
2023-01-17T05:43:14.233Z,95746.97
2023-01-17T05:44:16.855Z,95758.25
2023-01-17T05:45:20.772Z,95742.25
2023-01-17T05:46:23.594Z,95749.28
2023-01-17T05:47:26.536Z,95756.88
2023-01-17T05:48:29.134Z,95757.81
2023-01-17T05:49:31.560Z,95760.25
2023-01-17T05:50:39.496Z,95762.22
2023-01-17T05:51:41.973Z,95763.87
2023-01-17T05:52:50.002Z,95763.59
2023-01-17T05:53:52.584Z,95765.84
2023-01-17T05:54:55.027Z,95774.53
2023-01-17T05:55:57.638Z,95775.16
2023-01-17T05:57:00.277Z,95776.69
2023-01-17T05:58:03.404Z,95778.97
2023-01-17T05:59:05.906Z,95774.22
2023-01-17T06:00:09.292Z,95780.78
2023-01-17T06:01:12.042Z,95778.50
2023-01-17T06:02:14.577Z,95783.53
2023-01-17T06:03:17.177Z,95788.72
2023-01-17T06:04:19.835Z,95782.00
2023-01-17T06:05:22.715Z,95783.69
2023-01-17T06:06:25.418Z,95798.59
2023-01-17T06:07:27.982Z,95806.69
2023-01-17T06:08:30.757Z,95800.56
2023-01-17T06:09:33.668Z,95801.94
2023-01-17T06:10:36.858Z,95800.44
2023-01-17T06:11:39.432Z,95807.13
2023-01-17T06:12:42.338Z,95809.41
2023-01-17T06:13:44.917Z,95808.34
2023-01-17T06:14:47.403Z,95803.03
2023-01-17T06:15:49.996Z,95808.81
2023-01-17T06:16:52.887Z,95806.84
2023-01-17T06:17:55.712Z,95813.22
2023-01-17T06:18:58.195Z,95815.97
2023-01-17T06:20:00.679Z,95799.66
2023-01-17T06:21:03.175Z,95808.47
2023-01-17T06:22:05.662Z,95805.75
2023-01-17T06:23:10.266Z,95806.22
2023-01-17T06:24:12.787Z,95813.53
2023-01-17T06:25:15.311Z,95800.72
2023-01-17T06:26:17.895Z,95809.56
2023-01-17T06:27:20.599Z,95803.94
2023-01-17T06:28:23.631Z,95809.84
2023-01-17T06:29:26.420Z,95808.03
2023-01-17T06:30:28.946Z,95805.12
2023-01-17T06:31:31.684Z,95817.63
2023-01-17T06:32:34.250Z,95820.03
2023-01-17T06:33:36.709Z,95811.81
2023-01-17T06:34:39.250Z,95809.87
2023-01-17T06:35:49.278Z,95815.47
2023-01-17T06:36:51.980Z,95818.53
2023-01-17T06:37:55.622Z,95823.84
2023-01-17T06:38:58.094Z,95823.84
2023-01-17T06:40:00.615Z,95823.53
2023-01-17T06:41:06.435Z,95838.09
2023-01-17T06:42:09.044Z,95832.50
2023-01-17T06:43:11.503Z,95839.50
2023-01-17T06:44:13.949Z,95836.03
2023-01-17T06:45:16.447Z,95833.41
2023-01-17T06:46:19.130Z,95849.41
2023-01-17T06:47:21.674Z,95840.44
2023-01-17T06:48:24.328Z,95846.06
2023-01-17T06:49:26.942Z,95846.34
2023-01-17T06:50:30.004Z,95855.19
2023-01-17T06:51:32.633Z,95853.63
2023-01-17T06:52:35.061Z,95843.56
2023-01-17T06:53:37.909Z,95857.31
2023-01-17T06:54:40.489Z,95852.59
2023-01-17T06:55:43.876Z,95861.84
2023-01-17T06:56:46.400Z,95857.78
2023-01-17T06:57:50.299Z,95863.69
2023-01-17T06:58:52.977Z,95865.50
2023-01-17T06:59:55.686Z,95869.13
2023-01-17T07:00:58.362Z,95864.91
2023-01-17T07:02:00.913Z,95869.13
2023-01-17T07:03:03.998Z,95861.72
2023-01-17T07:04:06.776Z,95866.75
2023-01-17T07:05:09.414Z,95869.63
2023-01-17T07:06:12.062Z,95872.06
2023-01-17T07:07:14.758Z,95873.72
2023-01-17T07:08:18.014Z,95872.81
2023-01-17T07:09:20.581Z,95878.88
2023-01-17T07:10:26.192Z,95876.31
2023-01-17T07:11:29.044Z,95880.72
2023-01-17T07:12:31.718Z,95880.66
2023-01-17T07:13:36.441Z,95882.50
2023-01-17T07:14:39.341Z,95888.78
2023-01-17T07:15:41.727Z,95888.03
2023-01-17T07:16:46.587Z,95899.22
2023-01-17T07:17:49.412Z,95896.44
2023-01-17T07:18:52.246Z,95900.53
2023-01-17T07:19:55.391Z,95895.13
2023-01-17T07:20:58.128Z,95905.47
2023-01-17T07:22:00.608Z,95905.16
2023-01-17T07:23:03.666Z,95909.56
2023-01-17T07:24:06.641Z,95911.53
2023-01-17T07:25:09.438Z,95903.59
2023-01-17T07:26:12.452Z,95916.06
2023-01-17T07:27:15.048Z,95916.53
2023-01-17T07:28:17.660Z,95920.00
2023-01-17T07:29:20.405Z,95913.50
2023-01-17T07:30:23.317Z,95918.38
2023-01-17T07:31:26.517Z,95912.44
2023-01-17T07:32:29.755Z,95923.78
2023-01-17T07:33:32.423Z,95924.09
2023-01-17T07:34:35.213Z,95925.38
2023-01-17T07:35:37.778Z,95923.56
2023-01-17T07:36:40.403Z,95927.50
2023-01-17T07:37:47.301Z,95933.25
2023-01-17T07:38:49.678Z,95936.31
2023-01-17T07:39:52.527Z,95945.78
2023-01-17T07:40:58.677Z,95946.19
2023-01-17T07:42:01.400Z,95942.50
2023-01-17T07:43:13.569Z,95947.69
2023-01-17T07:44:16.464Z,95946.06
2023-01-17T07:45:19.168Z,95948.34
2023-01-17T07:46:21.937Z,95958.69
2023-01-17T07:47:25.010Z,95963.38
2023-01-17T07:48:27.406Z,95966.28
2023-01-17T07:49:29.880Z,95967.72
2023-01-17T07:50:32.547Z,95971.53
2023-01-17T07:51:35.160Z,95976.06
2023-01-17T07:52:37.677Z,95977.97
2023-01-17T07:53:40.209Z,95977.56
2023-01-17T07:54:42.628Z,95986.22
2023-01-17T07:55:45.188Z,95992.28
2023-01-17T07:56:47.955Z,95995.62
2023-01-17T07:57:51.149Z,95998.53
2023-01-17T07:58:53.781Z,95997.22
2023-01-17T07:59:56.735Z,95999.53
2023-01-17T08:01:05.935Z,96001.13
2023-01-17T08:02:18.016Z,96001.06
2023-01-17T08:03:20.773Z,96007.75
2023-01-17T08:04:25.789Z,96010.19
2023-01-17T08:05:28.855Z,96008.06
2023-01-17T08:06:34.608Z,96003.88
2023-01-17T08:07:37.357Z,95998.69
2023-01-17T08:08:39.872Z,96007.13
2023-01-17T08:09:43.076Z,96005.88
2023-01-17T08:10:45.945Z,96005.19
2023-01-17T08:11:48.458Z,96007.37
2023-01-17T08:12:51.041Z,96012.66
2023-01-17T08:13:57.751Z,96013.91
2023-01-17T08:15:00.157Z,96017.53
2023-01-17T08:16:03.632Z,96017.84
2023-01-17T08:17:17.209Z,96017.06
2023-01-17T08:18:19.743Z,96020.13
2023-01-17T08:19:22.632Z,96017.94
2023-01-17T08:20:27.676Z,96029.78
2023-01-17T08:21:31.088Z,96022.31
2023-01-17T08:22:33.591Z,96023.59
2023-01-17T08:23:36.160Z,96024.63
2023-01-17T08:24:39.085Z,96027.28
2023-01-17T08:25:41.604Z,96027.00
2023-01-17T08:26:44.272Z,96030.72
2023-01-17T08:27:46.752Z,96019.84
2023-01-17T08:28:49.890Z,96024.94
2023-01-17T08:29:52.586Z,96028.00
2023-01-17T08:30:55.094Z,96026.25
2023-01-17T08:31:57.675Z,96021.19
2023-01-17T08:33:00.596Z,96018.59
2023-01-17T08:34:03.357Z,96020.88
2023-01-17T08:35:05.989Z,96032.38
2023-01-17T08:36:08.449Z,96032.66
2023-01-17T08:37:11.136Z,96033.88
2023-01-17T08:38:13.653Z,96034.94
2023-01-17T08:39:16.323Z,96035.22
2023-01-17T08:40:20.069Z,96033.41
2023-01-17T08:41:23.491Z,96043.63
2023-01-17T08:42:26.032Z,96041.03
2023-01-17T08:43:28.981Z,96041.53
2023-01-17T08:44:31.688Z,96035.09
2023-01-17T08:45:34.267Z,96032.91
2023-01-17T08:46:38.348Z,96039.69
2023-01-17T08:47:40.937Z,96033.41
2023-01-17T08:48:44.167Z,96025.50
2023-01-17T08:49:46.723Z,96031.19
2023-01-17T08:50:50.108Z,96033.16
2023-01-17T08:51:52.974Z,96029.37
2023-01-17T08:53:01.098Z,96031.34
2023-01-17T08:54:03.986Z,96027.97
2023-01-17T08:55:06.720Z,96030.69
2023-01-17T08:56:09.580Z,96024.47
2023-01-17T08:57:12.088Z,96030.84
2023-01-17T08:58:14.586Z,96026.84
2023-01-17T08:59:17.303Z,96027.81
2023-01-17T09:00:20.071Z,96017.63
2023-01-17T09:01:22.773Z,96015.28
2023-01-17T09:02:25.469Z,96022.09
2023-01-17T09:03:27.944Z,96018.00
2023-01-17T09:04:31.161Z,96011.50
2023-01-17T09:05:33.690Z,96028.63
2023-01-17T09:06:36.776Z,96028.94
2023-01-17T09:07:39.451Z,96036.81
2023-01-17T09:08:47.086Z,96037.25
2023-01-17T09:09:50.170Z,96033.78
2023-01-17T09:10:53.029Z,96042.91
2023-01-17T09:11:55.751Z,96047.53
2023-01-17T09:12:58.446Z,96043.19
2023-01-17T09:14:02.406Z,96046.41
2023-01-17T09:15:05.338Z,96054.50
2023-01-17T09:16:08.029Z,96048.16
2023-01-17T09:17:11.195Z,96039.84
2023-01-17T09:18:14.958Z,96052.41
2023-01-17T09:19:17.434Z,96057.44
2023-01-17T09:20:20.139Z,96055.38
2023-01-17T09:21:23.009Z,96056.16
2023-01-17T09:22:28.017Z,96058.22
2023-01-17T09:23:30.939Z,96055.38
2023-01-17T09:24:34.004Z,96059.81
2023-01-17T09:25:36.485Z,96055.78
2023-01-17T09:26:39.041Z,96056.22
2023-01-17T09:27:44.944Z,96056.19
2023-01-17T09:28:47.717Z,96054.38
2023-01-17T09:29:50.182Z,96047.09
2023-01-17T09:30:52.943Z,96049.06
2023-01-17T09:31:55.478Z,96051.88
2023-01-17T09:32:58.404Z,96054.16
2023-01-17T09:34:00.956Z,96056.25
2023-01-17T09:35:05.431Z,96068.28
2023-01-17T09:36:08.045Z,96067.94
2023-01-17T09:37:10.437Z,96070.53
2023-01-17T09:38:13.601Z,96077.72
2023-01-17T09:39:16.274Z,96076.44
2023-01-17T09:40:21.255Z,96074.69
2023-01-17T09:41:23.724Z,96073.25
2023-01-17T09:42:35.784Z,96079.03
2023-01-17T09:43:42.085Z,96076.28
2023-01-17T09:44:49.595Z,96083.91
2023-01-17T09:45:52.133Z,96087.56
2023-01-17T09:46:57.159Z,96085.81
2023-01-17T09:48:01.667Z,96090.97
2023-01-17T09:49:08.574Z,96092.03
2023-01-17T09:50:29.981Z,96097.97
2023-01-17T09:51:33.023Z,96106.06
2023-01-17T09:52:35.731Z,96110.44
2023-01-17T09:53:41.713Z,96123.53
2023-01-17T09:54:46.049Z,96124.16
2023-01-17T09:55:54.878Z,96119.44
2023-01-17T09:57:12.440Z,96119.38
2023-01-17T09:58:21.338Z,96121.00
2023-01-17T09:59:33.285Z,96117.34
2023-01-17T10:00:53.871Z,96113.97
2023-01-17T10:02:25.831Z,96116.22
2023-01-17T10:04:07.173Z,96116.72
2023-01-17T10:05:16.667Z,96123.41
2023-01-17T10:06:31.089Z,96124.50
2023-01-17T10:07:33.568Z,96124.59
2023-01-17T10:08:58.815Z,96124.66
2023-01-17T10:10:12.320Z,96132.28
2023-01-17T10:11:26.010Z,96120.06
2023-01-17T10:12:44.772Z,96124.19
2023-01-17T10:13:59.618Z,96127.63
2023-01-17T10:15:28.819Z,96132.16
2023-01-17T10:16:34.215Z,96124.41
2023-01-17T10:18:00.246Z,96133.34
2023-01-17T10:19:13.109Z,96124.59
2023-01-17T10:20:36.765Z,96124.47
2023-01-17T10:21:49.985Z,96139.56
2023-01-17T10:23:11.208Z,96140.09
2023-01-17T10:24:41.706Z,96134.69
2023-01-17T10:25:52.541Z,96126.75
2023-01-17T10:26:56.525Z,96127.81
2023-01-17T10:28:00.327Z,96116.59
2023-01-17T10:29:05.803Z,96116.75
2023-01-17T10:30:17.670Z,96110.88
2023-01-17T10:31:24.938Z,96110.62
2023-01-17T10:32:29.734Z,96114.34
2023-01-17T10:33:38.539Z,96106.59
2023-01-17T10:34:44.915Z,96111.84
2023-01-17T10:35:53.154Z,96112.00
2023-01-17T10:37:00.608Z,96115.59
2023-01-17T10:38:06.486Z,96110.72
2023-01-17T10:39:20.754Z,96115.97
2023-01-17T10:40:43.512Z,96107.16
2023-01-17T10:41:47.954Z,96105.53
2023-01-17T10:43:09.394Z,96099.25
2023-01-17T10:44:25.374Z,96102.41
2023-01-17T10:45:31.441Z,96104.63
2023-01-17T10:46:40.848Z,96093.03
2023-01-17T10:47:47.116Z,96099.59
2023-01-17T10:48:51.899Z,96096.31
2023-01-17T10:49:58.044Z,96094.78
2023-01-17T10:51:12.674Z,96107.25
2023-01-17T10:52:17.003Z,96093.50
2023-01-17T10:53:37.595Z,96103.69
2023-01-17T10:54:52.098Z,96100.91
2023-01-17T10:55:55.021Z,96096.09
2023-01-17T10:56:58.724Z,96090.00
2023-01-17T10:58:01.825Z,96088.44
2023-01-17T10:59:11.219Z,96085.03
2023-01-17T11:00:22.675Z,96083.19
2023-01-17T11:01:26.546Z,96078.75
2023-01-17T11:02:31.765Z,96073.72
2023-01-17T11:03:34.907Z,96077.56
2023-01-17T11:04:38.703Z,96076.59
2023-01-17T11:05:43.004Z,96079.59
2023-01-17T11:06:57.784Z,96076.37
2023-01-17T11:08:04.064Z,96066.25
2023-01-17T11:09:11.300Z,96065.88
2023-01-17T11:10:35.876Z,96060.47
2023-01-17T11:11:45.713Z,96048.91
2023-01-17T11:12:48.402Z,96054.88
2023-01-17T11:13:52.587Z,96052.22
2023-01-17T11:14:58.961Z,96061.47
2023-01-17T11:16:02.478Z,96058.81
2023-01-17T11:17:06.185Z,96063.94
2023-01-17T11:18:15.775Z,96057.81
2023-01-17T11:19:26.108Z,96057.06
2023-01-17T11:20:32.990Z,96054.66
2023-01-17T11:21:37.678Z,96051.81
2023-01-17T11:22:40.309Z,96053.25
2023-01-17T11:23:44.406Z,96041.09
2023-01-17T11:24:53.101Z,96053.28
2023-01-17T11:25:58.269Z,96040.91
2023-01-17T11:27:00.783Z,96042.97
2023-01-17T11:28:05.005Z,96038.03
2023-01-17T11:29:26.980Z,96035.88
2023-01-17T11:30:30.051Z,96037.97
2023-01-17T11:31:32.518Z,96039.44
2023-01-17T11:32:35.201Z,96032.03
2023-01-17T11:33:54.140Z,96026.84
2023-01-17T11:35:15.605Z,96031.44
2023-01-17T11:36:22.485Z,96032.91
2023-01-17T11:37:26.635Z,96023.53
2023-01-17T11:38:29.340Z,96029.25
2023-01-17T11:39:32.180Z,96021.69
2023-01-17T11:40:40.786Z,96022.81
2023-01-17T11:41:43.869Z,96015.25
2023-01-17T11:42:46.286Z,96012.16
2023-01-17T11:43:53.313Z,96005.34
2023-01-17T11:44:55.864Z,96001.81
2023-01-17T11:46:01.364Z,96001.63
2023-01-17T11:47:07.454Z,96003.97
2023-01-17T11:48:12.706Z,96006.59
2023-01-17T11:49:25.451Z,96005.13
2023-01-17T11:50:28.055Z,96007.75
2023-01-17T11:51:35.401Z,96014.53
2023-01-17T11:52:39.329Z,96005.88
2023-01-17T11:53:48.510Z,96006.66
2023-01-17T11:54:52.855Z,96008.03
2023-01-17T11:56:02.540Z,96007.75
2023-01-17T11:57:07.102Z,96013.25
2023-01-17T11:58:14.011Z,96022.28
2023-01-17T11:59:24.417Z,96026.97
2023-01-17T12:00:35.229Z,96038.31
2023-01-17T12:01:44.720Z,96037.53
2023-01-17T12:02:47.114Z,96037.53
2023-01-17T12:04:14.212Z,96045.63
2023-01-17T12:05:35.399Z,96054.09
2023-01-17T12:06:57.896Z,96057.50
2023-01-17T12:08:12.992Z,96047.22
2023-01-17T12:09:23.167Z,96038.91
2023-01-17T12:10:35.155Z,96044.09
2023-01-17T12:12:06.427Z,96050.25
2023-01-17T12:13:27.927Z,96048.97
2023-01-17T12:14:36.381Z,96047.06
2023-01-17T12:15:41.509Z,96057.81
2023-01-17T12:16:56.198Z,96056.16
2023-01-17T12:18:11.028Z,96045.03
2023-01-17T12:19:24.096Z,96042.16
2023-01-17T12:20:46.802Z,96048.00
2023-01-17T12:22:07.685Z,96046.41
2023-01-17T12:23:19.327Z,96044.87
2023-01-17T12:24:37.050Z,96046.38
2023-01-17T12:25:43.156Z,96046.44
2023-01-17T12:26:50.549Z,96041.47
2023-01-17T12:28:11.835Z,96041.28
2023-01-17T12:29:14.489Z,96039.19
2023-01-17T12:30:36.002Z,96039.91
2023-01-17T12:31:58.910Z,96047.06
2023-01-17T12:33:20.146Z,96049.03
2023-01-17T12:34:33.531Z,96044.16
2023-01-17T12:35:38.858Z,96048.75
2023-01-17T12:37:17.163Z,96037.44
2023-01-17T12:38:32.487Z,96043.16
2023-01-17T12:39:38.686Z,96053.03
2023-01-17T12:40:45.239Z,96046.72
2023-01-17T12:42:07.970Z,96046.56
2023-01-17T12:43:43.246Z,96040.13
2023-01-17T12:44:45.868Z,96033.44
2023-01-17T12:45:49.804Z,96032.88
2023-01-17T12:47:00.406Z,96040.25
2023-01-17T12:48:06.327Z,96039.69
2023-01-17T12:49:47.629Z,96048.19
2023-01-17T12:50:54.236Z,96036.56
2023-01-17T12:51:59.575Z,96039.75
2023-01-17T12:53:07.104Z,96041.25
2023-01-17T12:54:19.883Z,96039.94
2023-01-17T12:55:33.537Z,96033.00
2023-01-17T12:56:36.454Z,96035.94
2023-01-17T12:57:42.158Z,96027.91
2023-01-17T12:58:51.479Z,96025.97
2023-01-17T13:00:03.913Z,96030.47
2023-01-17T13:01:17.895Z,96024.78
2023-01-17T13:02:27.876Z,96027.88
2023-01-17T13:03:30.666Z,96028.09